createdAt,value
2018-07-26T00:00:33.159Z,73.51
2018-07-26T00:03:01.812Z,74.16
2018-07-26T00:05:30.427Z,73.67
2018-07-26T00:07:59.795Z,74.21
2018-07-26T00:10:28.318Z,74.44
2018-07-26T00:12:56.926Z,73.86
2018-07-26T00:15:25.587Z,74.13
2018-07-26T00:17:54.086Z,74.72
2018-07-26T00:20:22.714Z,75.00
2018-07-26T00:22:51.322Z,74.74
2018-07-26T00:25:19.979Z,75.53
2018-07-26T00:27:48.519Z,74.95
2018-07-26T00:30:18.019Z,75.13
2018-07-26T00:32:46.649Z,76.85
2018-07-26T00:35:15.267Z,76.38
2018-07-26T00:37:43.917Z,75.91
2018-07-26T00:40:12.603Z,75.79
2018-07-26T00:42:41.230Z,76.21
2018-07-26T00:45:09.824Z,76.39
2018-07-26T00:47:38.525Z,77.07
2018-07-26T00:50:07.241Z,76.35
2018-07-26T00:52:35.927Z,76.36
2018-07-26T00:55:04.665Z,75.93
2018-07-26T00:57:33.378Z,75.41
2018-07-26T01:00:01.983Z,75.92
2018-07-26T01:02:30.502Z,76.38
2018-07-26T01:04:59.132Z,76.06
2018-07-26T01:07:27.731Z,76.32
2018-07-26T01:09:56.355Z,76.29
2018-07-26T01:12:25.000Z,76.27
2018-07-26T01:14:53.889Z,76.71
2018-07-26T01:17:22.386Z,76.52
2018-07-26T01:19:51.158Z,76.41
2018-07-26T01:22:19.952Z,75.87
2018-07-26T01:24:48.462Z,75.57
2018-07-26T01:27:17.111Z,75.93
2018-07-26T01:29:45.610Z,76.44
2018-07-26T01:32:14.318Z,76.67
2018-07-26T01:34:42.963Z,76.67
2018-07-26T01:37:11.597Z,76.53
2018-07-26T01:39:40.182Z,76.44
2018-07-26T01:42:08.919Z,76.41
2018-07-26T01:44:37.499Z,76.35
2018-07-26T01:47:06.186Z,76.53
2018-07-26T01:49:34.874Z,76.80
2018-07-26T01:52:03.455Z,76.71
2018-07-26T01:54:32.050Z,77.24
2018-07-26T01:57:00.722Z,77.17
2018-07-26T01:59:29.418Z,77.24
2018-07-26T02:01:58.042Z,76.84
2018-07-26T02:04:26.674Z,78.03
2018-07-26T02:06:55.360Z,77.51
2018-07-26T02:09:23.903Z,77.70
2018-07-26T02:11:52.524Z,77.30
2018-07-26T02:14:26.432Z,77.09
2018-07-26T02:16:55.118Z,77.96
2018-07-26T02:19:23.906Z,77.26
2018-07-26T02:21:52.462Z,77.69
2018-07-26T02:24:21.007Z,77.94
2018-07-26T02:26:49.552Z,78.89
2018-07-26T02:29:18.035Z,78.25
2018-07-26T02:31:46.821Z,78.41
2018-07-26T02:34:15.443Z,78.75
2018-07-26T02:36:44.132Z,78.29
2018-07-26T02:39:12.737Z,78.63
2018-07-26T02:41:41.272Z,78.63
2018-07-26T02:44:09.893Z,78.95
2018-07-26T02:46:38.389Z,78.65
2018-07-26T02:49:06.951Z,78.49
2018-07-26T02:51:35.531Z,78.45
2018-07-26T02:54:04.153Z,78.68
2018-07-26T02:56:32.736Z,78.73
2018-07-26T02:59:01.368Z,78.99
2018-07-26T03:01:29.917Z,79.54
2018-07-26T03:03:59.631Z,79.65
2018-07-26T03:06:28.255Z,79.36
2018-07-26T03:08:56.863Z,78.89
2018-07-26T03:11:25.419Z,80.46
2018-07-26T03:13:54.004Z,79.80
2018-07-26T03:16:22.623Z,79.59
2018-07-26T03:18:51.245Z,79.30
2018-07-26T03:21:20.408Z,79.98
2018-07-26T03:23:49.010Z,80.24
2018-07-26T03:26:17.602Z,79.90
2018-07-26T03:28:46.100Z,80.05
2018-07-26T03:31:14.655Z,79.57
2018-07-26T03:33:43.228Z,79.89
2018-07-26T03:36:11.924Z,80.28
2018-07-26T03:38:40.579Z,80.12
2018-07-26T03:41:09.098Z,80.19
2018-07-26T03:43:37.754Z,80.92
2018-07-26T03:46:06.416Z,81.03
2018-07-26T03:48:34.963Z,80.88
2018-07-26T03:51:03.680Z,80.54
2018-07-26T03:53:32.274Z,80.40
2018-07-26T03:56:01.614Z,80.37
2018-07-26T03:58:30.293Z,80.37
2018-07-26T04:00:58.878Z,80.37
2018-07-26T04:03:27.530Z,80.44
2018-07-26T04:05:56.144Z,80.72
2018-07-26T04:08:24.829Z,81.11
2018-07-26T04:10:53.339Z,81.38
2018-07-26T04:13:21.944Z,82.00
2018-07-26T04:15:50.578Z,82.75
2018-07-26T04:18:19.183Z,82.86
2018-07-26T04:20:47.793Z,82.45
2018-07-26T04:23:16.415Z,83.28
2018-07-26T04:25:45.039Z,83.02
2018-07-26T04:28:13.548Z,82.08
2018-07-26T04:30:42.091Z,82.58
2018-07-26T04:33:10.659Z,82.39
2018-07-26T04:35:39.344Z,81.55
2018-07-26T04:38:07.876Z,81.68
2018-07-26T04:40:36.447Z,81.27
2018-07-26T04:43:05.113Z,81.35
2018-07-26T04:45:33.767Z,80.91
2018-07-26T04:48:02.361Z,80.21
2018-07-26T04:50:31.048Z,80.42
2018-07-26T04:52:59.629Z,80.17
2018-07-26T04:55:28.212Z,78.81
2018-07-26T04:57:56.738Z,78.71
2018-07-26T05:00:25.254Z,78.89
2018-07-26T05:02:53.859Z,77.98
2018-07-26T05:05:22.578Z,78.39
2018-07-26T05:07:51.229Z,78.08
2018-07-26T05:10:20.222Z,77.90
2018-07-26T05:12:48.809Z,76.53
2018-07-26T05:15:17.387Z,76.31
2018-07-26T05:17:46.073Z,76.61
2018-07-26T05:20:14.656Z,75.91
2018-07-26T05:22:43.290Z,75.62
2018-07-26T05:25:11.925Z,75.71
2018-07-26T05:27:40.517Z,74.67
2018-07-26T05:30:09.071Z,74.98
2018-07-26T05:32:37.673Z,73.71
2018-07-26T05:35:07.280Z,73.14
2018-07-26T05:37:35.919Z,73.40
2018-07-26T05:40:05.469Z,72.42
2018-07-26T05:42:35.250Z,71.87
2018-07-26T05:45:05.171Z,70.99
2018-07-26T05:47:33.882Z,71.28
2018-07-26T05:50:02.715Z,70.51
2018-07-26T05:52:31.456Z,70.74
2018-07-26T05:55:00.143Z,70.56
2018-07-26T05:57:28.873Z,70.29
2018-07-26T05:59:57.408Z,69.37
2018-07-26T06:02:25.993Z,69.62
2018-07-26T06:04:54.519Z,68.52
2018-07-26T06:07:23.263Z,68.07
2018-07-26T06:09:51.845Z,65.77
2018-07-26T06:12:20.476Z,65.81
2018-07-26T06:14:49.112Z,65.92
2018-07-26T06:17:17.746Z,65.93
2018-07-26T06:19:46.207Z,65.84
2018-07-26T06:22:14.860Z,64.73
2018-07-26T06:24:43.650Z,65.74
2018-07-26T06:27:12.199Z,64.53
2018-07-26T06:29:40.738Z,65.38
2018-07-26T06:32:09.742Z,66.06
2018-07-26T06:34:38.433Z,65.53
2018-07-26T06:37:07.319Z,64.67
2018-07-26T06:39:36.024Z,64.86
2018-07-26T06:42:04.701Z,63.90
2018-07-26T06:44:33.278Z,63.21
2018-07-26T06:47:02.064Z,62.50
2018-07-26T06:49:30.619Z,59.38
2018-07-26T06:51:59.209Z,60.57
2018-07-26T06:54:28.389Z,58.60
2018-07-26T06:56:57.068Z,60.02
2018-07-26T06:59:25.651Z,59.12
2018-07-26T07:01:54.753Z,59.13
2018-07-26T07:04:23.842Z,58.92
2018-07-26T07:06:52.936Z,57.77
2018-07-26T07:09:21.520Z,57.49
2018-07-26T07:11:50.309Z,56.52
2018-07-26T07:14:19.207Z,58.32
2018-07-26T07:16:47.714Z,56.27
2018-07-26T07:19:16.302Z,56.27
2018-07-26T07:21:45.050Z,56.65
2018-07-26T07:24:18.138Z,56.15
2018-07-26T07:26:46.706Z,55.67
2018-07-26T07:29:15.331Z,56.01
2018-07-26T07:31:43.937Z,53.89
2018-07-26T07:34:12.624Z,52.45
2018-07-26T07:36:41.258Z,51.32
2018-07-26T07:39:11.941Z,49.01
2018-07-26T07:41:40.846Z,52.03
2018-07-26T07:44:10.041Z,51.57
2018-07-26T07:46:39.345Z,52.47
2018-07-26T07:49:08.366Z,51.16
2018-07-26T07:51:36.904Z,49.90
2018-07-26T07:54:05.514Z,48.34
2018-07-26T07:56:34.120Z,49.10
2018-07-26T07:59:02.805Z,47.70
2018-07-26T08:01:31.291Z,49.19
2018-07-26T08:03:59.803Z,46.18
2018-07-26T08:06:28.387Z,46.99
2018-07-26T08:08:57.032Z,46.57
2018-07-26T08:11:25.675Z,45.57
2018-07-26T08:13:54.300Z,46.65
2018-07-26T08:16:22.798Z,46.62
2018-07-26T08:18:51.465Z,46.04
2018-07-26T08:21:20.165Z,44.30
2018-07-26T08:23:48.735Z,45.16
2018-07-26T08:26:17.727Z,43.97
2018-07-26T08:28:46.251Z,43.72
2018-07-26T08:31:15.446Z,44.49
2018-07-26T08:33:44.091Z,43.32
2018-07-26T08:36:12.707Z,41.67
2018-07-26T08:38:41.287Z,43.13
2018-07-26T08:41:09.902Z,42.62
2018-07-26T08:43:38.595Z,42.94
2018-07-26T08:46:07.251Z,43.00
2018-07-26T08:48:35.995Z,40.68
2018-07-26T08:51:04.663Z,41.93
2018-07-26T08:53:33.269Z,41.08
2018-07-26T08:56:01.872Z,40.29
2018-07-26T08:58:30.456Z,42.30
2018-07-26T09:00:59.762Z,42.05
2018-07-26T09:03:28.313Z,41.32
2018-07-26T09:05:56.923Z,42.12
2018-07-26T09:08:25.581Z,41.30
2018-07-26T09:10:54.194Z,41.03
2018-07-26T09:13:22.934Z,40.68
2018-07-26T09:15:51.745Z,41.37
2018-07-26T09:18:20.266Z,41.42
2018-07-26T09:20:48.905Z,39.61
2018-07-26T09:23:17.693Z,39.11
2018-07-26T09:25:46.276Z,40.46
2018-07-26T09:28:15.015Z,39.90
2018-07-26T09:30:43.544Z,40.20
2018-07-26T09:33:12.095Z,38.72
2018-07-26T09:35:40.704Z,40.38
2018-07-26T09:38:09.346Z,39.43
2018-07-26T09:40:37.874Z,40.45
2018-07-26T09:43:06.868Z,40.04
2018-07-26T09:45:35.553Z,40.45
2018-07-26T09:48:04.240Z,40.41
2018-07-26T09:50:32.747Z,38.45
2018-07-26T09:53:01.405Z,39.51
2018-07-26T09:55:30.007Z,39.63
2018-07-26T09:57:58.635Z,38.35
2018-07-26T10:00:32.377Z,38.36
2018-07-26T10:03:00.959Z,38.77
2018-07-26T10:05:29.559Z,38.05
2018-07-26T10:07:58.227Z,39.86
2018-07-26T10:10:26.819Z,40.62
2018-07-26T10:12:55.428Z,39.32
2018-07-26T10:15:24.003Z,40.79
2018-07-26T10:17:52.615Z,37.35
2018-07-26T10:20:21.270Z,39.91
2018-07-26T10:22:49.932Z,40.70
2018-07-26T10:25:18.567Z,39.55
2018-07-26T10:27:47.149Z,40.03
2018-07-26T10:30:15.830Z,39.10
2018-07-26T10:32:45.284Z,39.82
2018-07-26T10:35:13.973Z,39.22
2018-07-26T10:37:42.576Z,39.34
2018-07-26T10:40:11.195Z,39.89
2018-07-26T10:42:39.821Z,40.40
2018-07-26T10:45:08.404Z,40.15
2018-07-26T10:47:36.995Z,40.98
2018-07-26T10:50:08.263Z,41.39
2018-07-26T10:52:36.866Z,41.69
2018-07-26T10:55:06.095Z,41.52
2018-07-26T10:57:35.871Z,41.74
2018-07-26T11:00:05.961Z,42.04
2018-07-26T11:02:34.487Z,42.04
2018-07-26T11:05:03.828Z,41.59
2018-07-26T11:07:32.409Z,40.99
2018-07-26T11:10:00.951Z,41.95
2018-07-26T11:12:29.494Z,42.02
2018-07-26T11:15:06.596Z,41.83
2018-07-26T11:17:35.163Z,41.03
2018-07-26T11:20:03.890Z,41.62
2018-07-26T11:22:32.434Z,42.08
2018-07-26T11:25:01.092Z,40.85
2018-07-26T11:27:29.649Z,40.91
2018-07-26T11:29:58.246Z,41.56
2018-07-26T11:32:26.856Z,41.14
2018-07-26T11:34:55.458Z,40.59
2018-07-26T11:37:24.106Z,41.06
2018-07-26T11:39:52.750Z,40.08
2018-07-26T11:42:21.384Z,41.12
2018-07-26T11:44:50.063Z,41.06
2018-07-26T11:47:19.438Z,40.54
2018-07-26T11:49:47.959Z,41.26
2018-07-26T11:52:17.038Z,41.89
2018-07-26T11:54:46.151Z,42.14
2018-07-26T11:57:14.807Z,41.68
2018-07-26T11:59:43.504Z,41.41
2018-07-26T12:02:12.790Z,41.87
2018-07-26T12:04:41.899Z,40.87
2018-07-26T12:07:10.511Z,40.89
2018-07-26T12:09:39.935Z,41.63
2018-07-26T12:12:09.523Z,41.70
2018-07-26T12:14:38.578Z,40.74
2018-07-26T12:17:07.210Z,41.33
2018-07-26T12:19:36.046Z,40.84
2018-07-26T12:22:04.899Z,40.86
2018-07-26T12:24:33.530Z,41.52
2018-07-26T12:27:02.186Z,41.53
2018-07-26T12:29:31.208Z,41.45
2018-07-26T12:31:59.847Z,41.47
2018-07-26T12:34:28.784Z,42.12
2018-07-26T12:36:57.927Z,41.43
2018-07-26T12:39:26.508Z,41.98
2018-07-26T12:41:55.064Z,41.93
2018-07-26T12:44:23.675Z,41.41
2018-07-26T12:46:52.159Z,40.85
2018-07-26T12:49:20.707Z,40.97
2018-07-26T12:51:49.375Z,40.91
2018-07-26T12:54:18.062Z,40.67
2018-07-26T12:56:46.566Z,41.12
2018-07-26T12:59:15.067Z,40.96
2018-07-26T13:01:43.633Z,40.12
2018-07-26T13:04:12.239Z,38.42
2018-07-26T13:06:40.822Z,37.91
2018-07-26T13:09:10.656Z,40.21
2018-07-26T13:11:39.270Z,39.53
2018-07-26T13:14:08.780Z,40.08
2018-07-26T13:16:37.458Z,37.63
2018-07-26T13:19:06.144Z,39.60
2018-07-26T13:21:35.396Z,38.49
2018-07-26T13:24:03.930Z,39.91
2018-07-26T13:26:32.425Z,38.41
2018-07-26T13:29:01.049Z,38.61
2018-07-26T13:31:29.671Z,37.59
2018-07-26T13:33:58.255Z,36.06
2018-07-26T13:36:26.831Z,36.60
2018-07-26T13:38:55.461Z,37.46
2018-07-26T13:41:24.055Z,38.59
2018-07-26T13:43:52.643Z,37.83
2018-07-26T13:46:21.186Z,37.64
2018-07-26T13:48:49.786Z,37.53
2018-07-26T13:51:18.427Z,36.86
2018-07-26T13:53:46.944Z,37.93
2018-07-26T13:56:15.604Z,37.66
2018-07-26T13:58:44.143Z,38.59
2018-07-26T14:01:12.689Z,37.61
2018-07-26T14:03:41.399Z,38.64
2018-07-26T14:06:10.055Z,38.12
2018-07-26T14:08:38.643Z,37.88
2018-07-26T14:11:07.245Z,36.92
2018-07-26T14:13:35.993Z,38.61
2018-07-26T14:16:04.788Z,37.56
2018-07-26T14:18:33.363Z,38.09
2018-07-26T14:21:01.945Z,37.49
2018-07-26T14:23:35.703Z,36.61
2018-07-26T14:26:04.435Z,36.65
2018-07-26T14:28:33.120Z,36.72
2018-07-26T14:31:01.626Z,36.33
2018-07-26T14:33:30.126Z,35.96
2018-07-26T14:35:58.708Z,35.38
2018-07-26T14:38:27.290Z,35.55
2018-07-26T14:40:56.140Z,35.06
2018-07-26T14:43:24.869Z,35.49
2018-07-26T14:45:53.508Z,36.22
2018-07-26T14:48:22.126Z,35.77
2018-07-26T14:50:51.595Z,36.02
2018-07-26T14:53:20.097Z,35.98
2018-07-26T14:55:48.715Z,36.67
2018-07-26T14:58:17.345Z,36.58
2018-07-26T15:00:45.847Z,36.23
2018-07-26T15:03:14.509Z,37.57
2018-07-26T15:05:43.654Z,36.35
2018-07-26T15:08:12.280Z,36.40
2018-07-26T15:10:40.977Z,37.51
2018-07-26T15:13:09.606Z,36.29
2018-07-26T15:15:38.244Z,36.62
2018-07-26T15:18:06.902Z,36.58
2018-07-26T15:20:35.679Z,36.73
2018-07-26T15:23:04.254Z,37.28
2018-07-26T15:25:32.954Z,36.51
2018-07-26T15:28:01.572Z,37.69
2018-07-26T15:30:30.078Z,37.34
2018-07-26T15:32:59.058Z,37.54
2018-07-26T15:35:27.619Z,37.09
2018-07-26T15:37:56.720Z,37.18
2018-07-26T15:40:25.230Z,36.66
2018-07-26T15:42:53.926Z,36.31
2018-07-26T15:45:22.570Z,36.84
2018-07-26T15:47:51.191Z,36.94
2018-07-26T15:50:19.944Z,35.82
2018-07-26T15:52:48.627Z,36.46
2018-07-26T15:55:17.152Z,36.07
2018-07-26T15:57:46.578Z,35.88
2018-07-26T16:00:15.199Z,36.64
2018-07-26T16:02:43.851Z,36.86
2018-07-26T16:05:12.522Z,36.35
2018-07-26T16:07:41.149Z,36.12
2018-07-26T16:10:10.207Z,36.29
2018-07-26T16:12:39.139Z,36.89
2018-07-26T16:15:09.713Z,35.11
2018-07-26T16:17:38.491Z,36.71
2018-07-26T16:20:08.814Z,35.73
2018-07-26T16:22:37.435Z,35.27
2018-07-26T16:25:07.951Z,36.06
2018-07-26T16:27:36.734Z,35.71
2018-07-26T16:30:07.730Z,35.21
2018-07-26T16:32:36.487Z,35.08
2018-07-26T16:35:05.686Z,35.69
2018-07-26T16:37:34.231Z,35.57
2018-07-26T16:40:02.872Z,35.07
2018-07-26T16:42:31.548Z,37.01
2018-07-26T16:45:00.133Z,35.76
2018-07-26T16:47:28.670Z,35.52
2018-07-26T16:49:57.606Z,36.08
2018-07-26T16:52:26.237Z,36.61
2018-07-26T16:54:54.872Z,36.23
2018-07-26T16:57:23.558Z,36.31
2018-07-26T16:59:52.351Z,36.81
2018-07-26T17:02:20.971Z,37.07
2018-07-26T17:04:49.646Z,36.85
2018-07-26T17:07:18.298Z,37.66
2018-07-26T17:09:47.078Z,37.53
2018-07-26T17:12:15.669Z,37.67
2018-07-26T17:14:44.300Z,37.61
2018-07-26T17:17:12.851Z,37.51
2018-07-26T17:19:41.519Z,38.49
2018-07-26T17:22:10.205Z,37.53
2018-07-26T17:24:38.820Z,37.80
2018-07-26T17:27:07.415Z,37.93
2018-07-26T17:29:36.057Z,37.33
2018-07-26T17:32:04.701Z,36.84
2018-07-26T17:34:33.247Z,37.63
2018-07-26T17:37:01.804Z,37.67
2018-07-26T17:39:30.390Z,37.35
2018-07-26T17:41:58.911Z,37.81
2018-07-26T17:44:27.902Z,37.56
2018-07-26T17:46:56.547Z,37.49
2018-07-26T17:49:25.133Z,37.55
2018-07-26T17:51:53.713Z,37.34
2018-07-26T17:54:22.341Z,37.91
2018-07-26T17:56:51.151Z,38.25
2018-07-26T17:59:20.489Z,38.52
2018-07-26T18:01:49.951Z,39.06
2018-07-26T18:04:18.591Z,38.25
2018-07-26T18:06:47.260Z,38.96
2018-07-26T18:09:15.942Z,38.56
2018-07-26T18:11:45.241Z,39.30
2018-07-26T18:14:13.825Z,39.18
2018-07-26T18:16:42.409Z,39.21
2018-07-26T18:19:11.035Z,40.04
2018-07-26T18:21:40.087Z,40.44
2018-07-26T18:24:08.976Z,40.41
2018-07-26T18:26:37.663Z,41.04
2018-07-26T18:29:06.357Z,41.15
2018-07-26T18:31:35.022Z,41.06
2018-07-26T18:34:03.538Z,41.19
2018-07-26T18:36:32.198Z,41.69
2018-07-26T18:39:00.858Z,41.38
2018-07-26T18:41:29.466Z,41.68
2018-07-26T18:43:58.189Z,41.97
2018-07-26T18:46:26.795Z,42.62
2018-07-26T18:48:55.343Z,42.58
2018-07-26T18:51:24.002Z,43.05
2018-07-26T18:53:52.585Z,42.78
2018-07-26T18:56:21.463Z,42.84
2018-07-26T18:58:50.061Z,43.69
2018-07-26T19:01:18.671Z,43.62
2018-07-26T19:03:47.327Z,43.76
2018-07-26T19:06:16.217Z,43.51
2018-07-26T19:08:44.869Z,43.70
2018-07-26T19:11:13.485Z,43.54
2018-07-26T19:13:42.015Z,43.91
2018-07-26T19:16:10.651Z,43.85
2018-07-26T19:18:39.234Z,44.08
2018-07-26T19:21:08.481Z,44.16
2018-07-26T19:23:37.171Z,44.47
2018-07-26T19:26:06.055Z,45.08
2018-07-26T19:28:34.591Z,45.50
2018-07-26T19:31:03.335Z,45.55
2018-07-26T19:33:31.962Z,46.16
2018-07-26T19:36:00.601Z,45.79
2018-07-26T19:38:29.332Z,46.54
2018-07-26T19:40:57.975Z,47.09
2018-07-26T19:43:26.495Z,46.61
2018-07-26T19:45:55.733Z,46.58
2018-07-26T19:48:24.422Z,47.49
2018-07-26T19:50:53.065Z,47.68
2018-07-26T19:53:21.605Z,48.45
2018-07-26T19:55:50.268Z,48.35
2018-07-26T19:58:18.963Z,48.18
2018-07-26T20:00:47.559Z,48.79
2018-07-26T20:03:16.288Z,48.71
2018-07-26T20:05:44.982Z,49.08
2018-07-26T20:08:13.560Z,49.64
2018-07-26T20:10:42.163Z,49.66
2018-07-26T20:13:11.541Z,49.60
2018-07-26T20:15:40.182Z,50.72
2018-07-26T20:18:08.867Z,50.94
2018-07-26T20:20:38.199Z,51.15
2018-07-26T20:23:07.002Z,51.34
2018-07-26T20:25:39.683Z,50.97
2018-07-26T20:28:08.733Z,51.56
2018-07-26T20:30:37.299Z,51.90
2018-07-26T20:33:06.145Z,51.94
2018-07-26T20:35:34.782Z,51.76
2018-07-26T20:38:03.516Z,51.88
2018-07-26T20:40:32.199Z,52.24
2018-07-26T20:43:00.755Z,52.09
2018-07-26T20:45:29.364Z,52.88
2018-07-26T20:47:58.056Z,53.51
2018-07-26T20:50:26.642Z,53.42
2018-07-26T20:52:55.362Z,53.95
2018-07-26T20:55:23.938Z,53.84
2018-07-26T20:57:52.591Z,54.00
2018-07-26T21:00:21.784Z,54.41
2018-07-26T21:02:50.318Z,54.50
2018-07-26T21:05:18.879Z,55.10
2018-07-26T21:07:47.532Z,55.72
2018-07-26T21:10:16.119Z,55.58
2018-07-26T21:12:44.802Z,55.49
2018-07-26T21:15:13.472Z,55.97
2018-07-26T21:17:42.011Z,55.75
2018-07-26T21:20:10.571Z,55.97
2018-07-26T21:22:39.742Z,56.40
2018-07-26T21:25:08.540Z,56.74
2018-07-26T21:27:37.119Z,56.42
2018-07-26T21:30:06.645Z,56.35
2018-07-26T21:32:35.927Z,57.41
2018-07-26T21:35:06.067Z,57.17
2018-07-26T21:37:34.740Z,57.06
2018-07-26T21:40:03.511Z,56.76
2018-07-26T21:42:32.304Z,57.07
2018-07-26T21:45:00.807Z,57.37
2018-07-26T21:47:29.306Z,57.33
2018-07-26T21:49:57.894Z,57.38
2018-07-26T21:52:26.530Z,57.68
2018-07-26T21:54:55.357Z,57.46
2018-07-26T21:57:24.002Z,58.18
2018-07-26T21:59:52.539Z,58.47
2018-07-26T22:02:21.183Z,57.68
2018-07-26T22:04:50.161Z,57.74
2018-07-26T22:07:18.899Z,57.96
2018-07-26T22:09:47.601Z,58.21
2018-07-26T22:12:16.171Z,58.46
2018-07-26T22:14:44.832Z,58.38
2018-07-26T22:17:13.381Z,58.50
2018-07-26T22:19:42.084Z,58.42
2018-07-26T22:22:11.425Z,58.99
2018-07-26T22:24:39.986Z,58.08
2018-07-26T22:27:08.533Z,57.86
2018-07-26T22:29:37.042Z,57.56
2018-07-26T22:32:05.803Z,57.64
2018-07-26T22:34:34.439Z,58.79
2018-07-26T22:37:03.071Z,57.67
2018-07-26T22:39:31.653Z,58.64
2018-07-26T22:42:00.229Z,58.82
2018-07-26T22:44:28.819Z,57.92
2018-07-26T22:46:57.401Z,57.41
2018-07-26T22:49:26.047Z,57.64
2018-07-26T22:51:54.670Z,58.90
2018-07-26T22:54:23.245Z,58.51
2018-07-26T22:56:51.874Z,58.60
2018-07-26T22:59:20.434Z,58.66
2018-07-26T23:01:49.207Z,57.83
2018-07-26T23:04:17.730Z,58.19
2018-07-26T23:06:46.303Z,58.65
2018-07-26T23:09:14.876Z,58.01
2018-07-26T23:11:43.688Z,57.72
2018-07-26T23:14:12.329Z,58.01
2018-07-26T23:16:41.012Z,58.31
2018-07-26T23:19:09.595Z,57.79
2018-07-26T23:21:38.190Z,58.03
2018-07-26T23:24:06.867Z,57.72
2018-07-26T23:26:35.503Z,57.72
2018-07-26T23:29:05.222Z,57.54
2018-07-26T23:31:33.827Z,57.97
2018-07-26T23:34:02.424Z,57.78
2018-07-26T23:36:32.031Z,57.18
2018-07-26T23:39:00.716Z,57.63
2018-07-26T23:41:29.814Z,57.98
2018-07-26T23:43:58.497Z,57.79
2018-07-26T23:46:27.182Z,57.63
2018-07-26T23:48:55.707Z,57.75
2018-07-26T23:51:25.066Z,58.64
2018-07-26T23:53:53.750Z,58.22
2018-07-26T23:56:22.368Z,58.44
2018-07-26T23:58:52.043Z,59.01
